sensor_id;sensor_type;location;lat;lon;timestamp;pressure;altitude;pressure_sealevel;temperature;humidity
29935;BME280;19905;53.370;-6.314;2023-08-06T00:00:50;101477.59;;;11.08;100.00
29935;BME280;19905;53.370;-6.314;2023-08-06T00:03:19;101481.31;;;11.06;100.00
29935;BME280;19905;53.370;-6.314;2023-08-06T00:05:47;101484.81;;;11.06;100.00
29935;BME280;19905;53.370;-6.314;2023-08-06T00:08:16;101483.84;;;11.07;100.00
29935;BME280;19905;53.370;-6.314;2023-08-06T00:10:46;101482.16;;;11.06;100.00
29935;BME280;19905;53.370;-6.314;2023-08-06T00:13:15;101478.31;;;10.98;100.00
29935;BME280;19905;53.370;-6.314;2023-08-06T00:15:44;101487.31;;;10.95;100.00
29935;BME280;19905;53.370;-6.314;2023-08-06T00:18:15;101491.94;;;10.91;100.00
29935;BME280;19905;53.370;-6.314;2023-08-06T00:20:44;101487.81;;;10.87;100.00
29935;BME280;19905;53.370;-6.314;2023-08-06T00:23:12;101486.50;;;10.80;100.00
29935;BME280;19905;53.370;-6.314;2023-08-06T00:25:41;101490.94;;;10.80;100.00
29935;BME280;19905;53.370;-6.314;2023-08-06T00:28:10;101480.47;;;10.78;100.00
29935;BME280;19905;53.370;-6.314;2023-08-06T00:30:38;101492.91;;;10.76;100.00
29935;BME280;19905;53.370;-6.314;2023-08-06T00:33:07;101490.56;;;10.72;100.00
29935;BME280;19905;53.370;-6.314;2023-08-06T00:35:37;101495.56;;;10.76;100.00
29935;BME280;19905;53.370;-6.314;2023-08-06T00:38:05;101492.47;;;10.69;100.00
29935;BME280;19905;53.370;-6.314;2023-08-06T00:40:34;101497.78;;;10.69;100.00
29935;BME280;19905;53.370;-6.314;2023-08-06T00:43:03;101500.41;;;10.69;100.00
29935;BME280;19905;53.370;-6.314;2023-08-06T00:45:34;101496.16;;;10.67;100.00
29935;BME280;19905;53.370;-6.314;2023-08-06T00:48:05;101506.00;;;10.65;100.00
29935;BME280;19905;53.370;-6.314;2023-08-06T00:50:34;101498.34;;;10.60;100.00
29935;BME280;19905;53.370;-6.314;2023-08-06T00:53:04;101505.53;;;10.58;100.00
29935;BME280;19905;53.370;-6.314;2023-08-06T00:55:33;101499.50;;;10.56;100.00
29935;BME280;19905;53.370;-6.314;2023-08-06T00:58:02;101506.38;;;10.59;100.00
29935;BME280;19905;53.370;-6.314;2023-08-06T01:00:31;101505.84;;;10.54;100.00
29935;BME280;19905;53.370;-6.314;2023-08-06T01:03:00;101499.97;;;10.49;100.00
29935;BME280;19905;53.370;-6.314;2023-08-06T01:05:29;101507.91;;;10.49;100.00
29935;BME280;19905;53.370;-6.314;2023-08-06T01:08:12;101505.38;;;10.47;100.00
29935;BME280;19905;53.370;-6.314;2023-08-06T01:10:54;101501.22;;;10.43;100.00
29935;BME280;19905;53.370;-6.314;2023-08-06T01:13:31;101503.13;;;10.41;100.00
29935;BME280;19905;53.370;-6.314;2023-08-06T01:16:01;101505.00;;;10.39;100.00
29935;BME280;19905;53.370;-6.314;2023-08-06T01:18:33;101504.25;;;10.37;100.00
29935;BME280;19905;53.370;-6.314;2023-08-06T01:21:03;101508.75;;;10.35;100.00
29935;BME280;19905;53.370;-6.314;2023-08-06T01:23:32;101500.94;;;10.33;100.00
29935;BME280;19905;53.370;-6.314;2023-08-06T01:26:08;101508.97;;;10.32;100.00
29935;BME280;19905;53.370;-6.314;2023-08-06T01:28:42;101511.22;;;10.24;100.00
29935;BME280;19905;53.370;-6.314;2023-08-06T01:31:18;101508.56;;;10.24;100.00
29935;BME280;19905;53.370;-6.314;2023-08-06T01:33:51;101515.66;;;10.23;100.00
29935;BME280;19905;53.370;-6.314;2023-08-06T01:36:23;101505.25;;;10.20;100.00
29935;BME280;19905;53.370;-6.314;2023-08-06T01:38:52;101507.78;;;10.22;100.00
29935;BME280;19905;53.370;-6.314;2023-08-06T01:41:21;101516.41;;;10.25;100.00
29935;BME280;19905;53.370;-6.314;2023-08-06T01:43:50;101515.66;;;10.23;100.00
29935;BME280;19905;53.370;-6.314;2023-08-06T01:46:18;101526.28;;;10.22;100.00
29935;BME280;19905;53.370;-6.314;2023-08-06T01:48:47;101521.88;;;10.22;100.00
29935;BME280;19905;53.370;-6.314;2023-08-06T01:51:15;101526.38;;;10.20;100.00
29935;BME280;19905;53.370;-6.314;2023-08-06T01:53:45;101523.91;;;10.17;100.00
29935;BME280;19905;53.370;-6.314;2023-08-06T01:56:14;101524.03;;;10.15;100.00
29935;BME280;19905;53.370;-6.314;2023-08-06T01:58:42;101525.72;;;10.16;100.00
29935;BME280;19905;53.370;-6.314;2023-08-06T02:01:11;101526.78;;;10.14;100.00
29935;BME280;19905;53.370;-6.314;2023-08-06T02:03:40;101534.88;;;10.11;100.00
29935;BME280;19905;53.370;-6.314;2023-08-06T02:06:08;101530.66;;;10.08;100.00
29935;BME280;19905;53.370;-6.314;2023-08-06T02:08:37;101536.84;;;10.07;100.00
29935;BME280;19905;53.370;-6.314;2023-08-06T02:11:08;101535.91;;;10.08;100.00
29935;BME280;19905;53.370;-6.314;2023-08-06T02:13:36;101530.72;;;10.07;100.00
29935;BME280;19905;53.370;-6.314;2023-08-06T02:16:07;101541.94;;;10.10;100.00
29935;BME280;19905;53.370;-6.314;2023-08-06T02:18:36;101536.84;;;10.07;100.00
29935;BME280;19905;53.370;-6.314;2023-08-06T02:21:04;101549.75;;;10.12;100.00
29935;BME280;19905;53.370;-6.314;2023-08-06T02:23:33;101539.88;;;10.15;100.00
29935;BME280;19905;53.370;-6.314;2023-08-06T02:26:04;101541.50;;;10.18;100.00
29935;BME280;19905;53.370;-6.314;2023-08-06T02:28:34;101542.22;;;10.20;100.00
29935;BME280;19905;53.370;-6.314;2023-08-06T02:31:02;101535.06;;;10.22;100.00
29935;BME280;19905;53.370;-6.314;2023-08-06T02:33:31;101538.75;;;10.19;100.00
29935;BME280;19905;53.370;-6.314;2023-08-06T02:36:00;101536.84;;;10.22;100.00
29935;BME280;19905;53.370;-6.314;2023-08-06T02:38:31;101536.22;;;10.18;100.00
29935;BME280;19905;53.370;-6.314;2023-08-06T02:41:02;101548.28;;;10.22;100.00
29935;BME280;19905;53.370;-6.314;2023-08-06T02:43:31;101541.19;;;10.23;100.00
29935;BME280;19905;53.370;-6.314;2023-08-06T02:46:01;101545.63;;;10.22;100.00
29935;BME280;19905;53.370;-6.314;2023-08-06T02:48:30;101540.53;;;10.19;100.00
29935;BME280;19905;53.370;-6.314;2023-08-06T02:50:59;101536.94;;;10.20;100.00
29935;BME280;19905;53.370;-6.314;2023-08-06T02:53:28;101540.25;;;10.24;100.00
29935;BME280;19905;53.370;-6.314;2023-08-06T02:55:56;101541.03;;;10.26;100.00
29935;BME280;19905;53.370;-6.314;2023-08-06T02:58:25;101537.63;;;10.24;100.00
29935;BME280;19905;53.370;-6.314;2023-08-06T03:01:03;101541.03;;;10.26;100.00
29935;BME280;19905;53.370;-6.314;2023-08-06T03:03:33;101529.69;;;10.24;100.00
29935;BME280;19905;53.370;-6.314;2023-08-06T03:06:02;101536.00;;;10.21;100.00
29935;BME280;19905;53.370;-6.314;2023-08-06T03:08:30;101534.31;;;10.20;100.00
29935;BME280;19905;53.370;-6.314;2023-08-06T03:10:59;101531.84;;;10.17;100.00
29935;BME280;19905;53.370;-6.314;2023-08-06T03:13:27;101533.56;;;10.18;100.00
29935;BME280;19905;53.370;-6.314;2023-08-06T03:15:57;101533.63;;;10.16;100.00
29935;BME280;19905;53.370;-6.314;2023-08-06T03:18:27;101532.91;;;10.14;100.00
29935;BME280;19905;53.370;-6.314;2023-08-06T03:20:56;101526.78;;;10.14;100.00
29935;BME280;19905;53.370;-6.314;2023-08-06T03:23:25;101528.47;;;10.15;100.00
29935;BME280;19905;53.370;-6.314;2023-08-06T03:25:53;101526.56;;;10.17;100.00
29935;BME280;19905;53.370;-6.314;2023-08-06T03:28:22;101529.03;;;10.20;100.00
29935;BME280;19905;53.370;-6.314;2023-08-06T03:30:59;101537.72;;;10.22;100.00
29935;BME280;19905;53.370;-6.314;2023-08-06T03:33:29;101532.34;;;10.24;100.00
29935;BME280;19905;53.370;-6.314;2023-08-06T03:35:58;101538.56;;;10.23;100.00
29935;BME280;19905;53.370;-6.314;2023-08-06T03:38:26;101543.84;;;10.23;100.00
29935;BME280;19905;53.370;-6.314;2023-08-06T03:40:55;101540.25;;;10.24;100.00
29935;BME280;19905;53.370;-6.314;2023-08-06T03:43:24;101533.34;;;10.21;100.00
29935;BME280;19905;53.370;-6.314;2023-08-06T03:45:53;101536.28;;;10.16;100.00
29935;BME280;19905;53.370;-6.314;2023-08-06T03:48:21;101534.47;;;10.17;100.00
29935;BME280;19905;53.370;-6.314;2023-08-06T03:50:52;101530.16;;;10.16;100.00
29935;BME280;19905;53.370;-6.314;2023-08-06T03:53:21;101530.16;;;10.16;100.00
29935;BME280;19905;53.370;-6.314;2023-08-06T03:55:49;101538.28;;;10.13;100.00
29935;BME280;19905;53.370;-6.314;2023-08-06T03:58:18;101536.38;;;10.15;100.00
29935;BME280;19905;53.370;-6.314;2023-08-06T04:00:46;101531.28;;;10.12;100.00
29935;BME280;19905;53.370;-6.314;2023-08-06T04:03:15;101541.84;;;10.12;100.00
29935;BME280;19905;53.370;-6.314;2023-08-06T04:05:44;101535.03;;;10.08;100.00
29935;BME280;19905;53.370;-6.314;2023-08-06T04:08:13;101536.22;;;10.04;100.00
29935;BME280;19905;53.370;-6.314;2023-08-06T04:10:42;101536.47;;;9.99;100.00
29935;BME280;19905;53.370;-6.314;2023-08-06T04:13:12;101533.91;;;9.98;100.00
29935;BME280;19905;53.370;-6.314;2023-08-06T04:15:40;101540.31;;;9.93;100.00
29935;BME280;19905;53.370;-6.314;2023-08-06T04:18:09;101546.53;;;9.92;100.00
29935;BME280;19905;53.370;-6.314;2023-08-06T04:20:42;101541.28;;;9.92;100.00
29935;BME280;19905;53.370;-6.314;2023-08-06T04:23:13;101545.97;;;9.87;100.00
29935;BME280;19905;53.370;-6.314;2023-08-06T04:25:41;101544.28;;;9.86;100.00
29935;BME280;19905;53.370;-6.314;2023-08-06T04:28:10;101544.28;;;9.86;100.00
29935;BME280;19905;53.370;-6.314;2023-08-06T04:30:38;101557.47;;;9.86;100.00
29935;BME280;19905;53.370;-6.314;2023-08-06T04:33:07;101562.81;;;9.85;100.00
29935;BME280;19905;53.370;-6.314;2023-08-06T04:35:36;101559.44;;;9.83;100.00
29935;BME280;19905;53.370;-6.314;2023-08-06T04:38:05;101563.88;;;9.82;100.00
29935;BME280;19905;53.370;-6.314;2023-08-06T04:40:35;101551.63;;;9.81;100.00
29935;BME280;19905;53.370;-6.314;2023-08-06T04:43:04;101555.78;;;9.85;100.00
29935;BME280;19905;53.370;-6.314;2023-08-06T04:45:33;101562.19;;;9.81;100.00
29935;BME280;19905;53.370;-6.314;2023-08-06T04:48:01;101555.19;;;9.80;100.00
29935;BME280;19905;53.370;-6.314;2023-08-06T04:50:30;101563.97;;;9.81;100.00
29935;BME280;19905;53.370;-6.314;2023-08-06T04:52:58;101563.97;;;9.81;100.00
29935;BME280;19905;53.370;-6.314;2023-08-06T04:55:27;101560.47;;;9.80;100.00
29935;BME280;19905;53.370;-6.314;2023-08-06T04:57:57;101564.91;;;9.80;100.00
29935;BME280;19905;53.370;-6.314;2023-08-06T05:00:26;101569.25;;;9.81;100.00
29935;BME280;19905;53.370;-6.314;2023-08-06T05:02:54;101570.16;;;9.80;100.00
29935;BME280;19905;53.370;-6.314;2023-08-06T05:05:23;101577.16;;;9.81;100.00
29935;BME280;19905;53.370;-6.314;2023-08-06T05:07:53;101577.91;;;9.83;100.00
29935;BME280;19905;53.370;-6.314;2023-08-06T05:10:24;101579.53;;;9.85;100.00
29935;BME280;19905;53.370;-6.314;2023-08-06T05:12:53;101586.50;;;9.86;100.00
29935;BME280;19905;53.370;-6.314;2023-08-06T05:15:24;101578.50;;;9.88;100.00
29935;BME280;19905;53.370;-6.314;2023-08-06T05:17:53;101584.63;;;9.88;100.00
29935;BME280;19905;53.370;-6.314;2023-08-06T05:20:21;101584.53;;;9.90;100.00
29935;BME280;19905;53.370;-6.314;2023-08-06T05:22:50;101585.19;;;9.93;100.00
29935;BME280;19905;53.370;-6.314;2023-08-06T05:25:18;101585.13;;;9.95;100.00
29935;BME280;19905;53.370;-6.314;2023-08-06T05:27:47;101585.00;;;9.97;100.00
29935;BME280;19905;53.370;-6.314;2023-08-06T05:30:16;101587.47;;;10.00;100.00
29935;BME280;19905;53.370;-6.314;2023-08-06T05:32:46;101589.06;;;10.02;100.00
29935;BME280;19905;53.370;-6.314;2023-08-06T05:35:15;101599.28;;;10.08;100.00
29935;BME280;19905;53.370;-6.314;2023-08-06T05:37:43;101602.75;;;10.09;100.00
29935;BME280;19905;53.370;-6.314;2023-08-06T05:40:12;101594.00;;;10.08;100.00
29935;BME280;19905;53.370;-6.314;2023-08-06T05:42:40;101597.09;;;10.15;100.00
29935;BME280;19905;53.370;-6.314;2023-08-06T05:45:09;101600.41;;;10.18;100.00
29935;BME280;19905;53.370;-6.314;2023-08-06T05:47:38;101609.00;;;10.22;100.00
29935;BME280;19905;53.370;-6.314;2023-08-06T05:50:08;101608.66;;;10.28;100.00
29935;BME280;19905;53.370;-6.314;2023-08-06T05:52:37;101612.53;;;10.37;100.00
29935;BME280;19905;53.370;-6.314;2023-08-06T05:55:06;101601.69;;;10.41;100.00
29935;BME280;19905;53.370;-6.314;2023-08-06T05:57:35;101607.34;;;10.50;100.00
29935;BME280;19905;53.370;-6.314;2023-08-06T06:00:04;101606.78;;;10.59;100.00
29935;BME280;19905;53.370;-6.314;2023-08-06T06:02:33;101612.53;;;10.65;100.00
29935;BME280;19905;53.370;-6.314;2023-08-06T06:05:02;101621.00;;;10.71;100.00
29935;BME280;19905;53.370;-6.314;2023-08-06T06:07:33;101618.00;;;10.77;100.00
29935;BME280;19905;53.370;-6.314;2023-08-06T06:10:01;101620.25;;;10.83;100.00
29935;BME280;19905;53.370;-6.314;2023-08-06T06:12:30;101626.81;;;10.90;100.00
29935;BME280;19905;53.370;-6.314;2023-08-06T06:14:59;101622.75;;;10.99;100.00
29935;BME280;19905;53.370;-6.314;2023-08-06T06:17:29;101627.47;;;11.08;100.00
29935;BME280;19905;53.370;-6.314;2023-08-06T06:19:57;101628.00;;;11.13;100.00
29935;BME280;19905;53.370;-6.314;2023-08-06T06:22:26;101627.22;;;11.25;100.00
29935;BME280;19905;53.370;-6.314;2023-08-06T06:24:57;101627.88;;;11.29;100.00
29935;BME280;19905;53.370;-6.314;2023-08-06T06:27:25;101632.47;;;11.39;100.00
29935;BME280;19905;53.370;-6.314;2023-08-06T06:29:54;101624.16;;;11.45;100.00
29935;BME280;19905;53.370;-6.314;2023-08-06T06:32:22;101629.78;;;11.54;100.00
29935;BME280;19905;53.370;-6.314;2023-08-06T06:34:51;101621.53;;;11.58;100.00
29935;BME280;19905;53.370;-6.314;2023-08-06T06:37:20;101625.59;;;11.64;100.00
29935;BME280;19905;53.370;-6.314;2023-08-06T06:39:49;101624.63;;;11.65;100.00
29935;BME280;19905;53.370;-6.314;2023-08-06T06:42:19;101634.63;;;11.74;100.00
29935;BME280;19905;53.370;-6.314;2023-08-06T06:44:47;101628.16;;;11.78;100.00
29935;BME280;19905;53.370;-6.314;2023-08-06T06:47:16;101631.13;;;11.74;100.00
29935;BME280;19905;53.370;-6.314;2023-08-06T06:49:45;101637.34;;;11.73;100.00
29935;BME280;19905;53.370;-6.314;2023-08-06T06:52:13;101628.00;;;11.67;100.00
29935;BME280;19905;53.370;-6.314;2023-08-06T06:54:42;101634.91;;;11.69;100.00
29935;BME280;19905;53.370;-6.314;2023-08-06T06:57:11;101635.00;;;11.68;100.00
29935;BME280;19905;53.370;-6.314;2023-08-06T06:59:41;101632.16;;;11.71;100.00
29935;BME280;19905;53.370;-6.314;2023-08-06T07:02:10;101626.56;;;11.76;100.00
29935;BME280;19905;53.370;-6.314;2023-08-06T07:04:38;101629.00;;;11.79;100.00
29935;BME280;19905;53.370;-6.314;2023-08-06T07:07:07;101628.25;;;11.77;100.00
29935;BME280;19905;53.370;-6.314;2023-08-06T07:09:35;101628.25;;;11.77;100.00
29935;BME280;19905;53.370;-6.314;2023-08-06T07:12:05;101626.63;;;11.88;100.00
29935;BME280;19905;53.370;-6.314;2023-08-06T07:14:33;101624.41;;;11.95;100.00
29935;BME280;19905;53.370;-6.314;2023-08-06T07:17:04;101624.31;;;12.09;100.00
29935;BME280;19905;53.370;-6.314;2023-08-06T07:19:33;101620.94;;;12.07;100.00
29935;BME280;19905;53.370;-6.314;2023-08-06T07:22:01;101621.13;;;12.04;100.00
29935;BME280;19905;53.370;-6.314;2023-08-06T07:24:30;101618.59;;;12.03;100.00
29935;BME280;19905;53.370;-6.314;2023-08-06T07:26:59;101621.03;;;12.06;100.00
29935;BME280;19905;53.370;-6.314;2023-08-06T07:29:28;101617.56;;;12.05;100.00
29935;BME280;19905;53.370;-6.314;2023-08-06T07:31:57;101626.41;;;12.04;100.00
29935;BME280;19905;53.370;-6.314;2023-08-06T07:34:27;101629.59;;;12.09;100.00
29935;BME280;19905;53.370;-6.314;2023-08-06T07:36:55;101625.19;;;12.10;100.00
29935;BME280;19905;53.370;-6.314;2023-08-06T07:39:24;101626.44;;;12.17;100.00
29935;BME280;19905;53.370;-6.314;2023-08-06T07:41:53;101622.63;;;12.21;100.00
29935;BME280;19905;53.370;-6.314;2023-08-06T07:44:21;101630.69;;;12.32;100.00
29935;BME280;19905;53.370;-6.314;2023-08-06T07:46:50;101621.47;;;12.38;100.00
29935;BME280;19905;53.370;-6.314;2023-08-06T07:49:19;101612.66;;;12.50;100.00
29935;BME280;19905;53.370;-6.314;2023-08-06T07:51:49;101612.19;;;12.69;100.00
29935;BME280;19905;53.370;-6.314;2023-08-06T07:54:19;101612.94;;;12.84;100.00
29935;BME280;19905;53.370;-6.314;2023-08-06T07:56:47;101607.38;;;13.00;100.00
29935;BME280;19905;53.370;-6.314;2023-08-06T07:59:16;101607.34;;;13.12;100.00
29935;BME280;19905;53.370;-6.314;2023-08-06T08:01:45;101610.31;;;13.08;100.00
29935;BME280;19905;53.370;-6.314;2023-08-06T08:04:13;101605.81;;;13.21;100.00
29935;BME280;19905;53.370;-6.314;2023-08-06T08:06:42;101611.66;;;13.26;100.00
29935;BME280;19905;53.370;-6.314;2023-08-06T08:09:11;101600.00;;;13.29;100.00
29935;BME280;19905;53.370;-6.314;2023-08-06T08:11:41;101601.50;;;13.44;100.00
29935;BME280;19905;53.370;-6.314;2023-08-06T08:14:10;101602.72;;;13.51;100.00
29935;BME280;19905;53.370;-6.314;2023-08-06T08:16:38;101599.63;;;13.57;100.00
29935;BME280;19905;53.370;-6.314;2023-08-06T08:19:07;101600.00;;;13.64;100.00
29935;BME280;19905;53.370;-6.314;2023-08-06T08:21:36;101600.63;;;13.67;100.00
29935;BME280;19905;53.370;-6.314;2023-08-06T08:24:05;101588.53;;;13.63;100.00
29935;BME280;19905;53.370;-6.314;2023-08-06T08:26:35;101596.28;;;13.66;100.00
29935;BME280;19905;53.370;-6.314;2023-08-06T08:29:04;101602.78;;;13.62;100.00
29935;BME280;19905;53.370;-6.314;2023-08-06T08:31:32;101587.72;;;13.74;100.00
29935;BME280;19905;53.370;-6.314;2023-08-06T08:34:06;101590.91;;;13.79;100.00
29935;BME280;19905;53.370;-6.314;2023-08-06T08:36:34;101580.78;;;13.84;100.00
29935;BME280;19905;53.370;-6.314;2023-08-06T08:39:03;101586.34;;;14.04;100.00
29935;BME280;19905;53.370;-6.314;2023-08-06T08:41:35;101583.34;;;14.19;100.00
29935;BME280;19905;53.370;-6.314;2023-08-06T08:44:05;101585.66;;;14.24;100.00
29935;BME280;19905;53.370;-6.314;2023-08-06T08:46:36;101584.69;;;14.14;100.00
29935;BME280;19905;53.370;-6.314;2023-08-06T08:49:05;101583.13;;;14.11;100.00
29935;BME280;19905;53.370;-6.314;2023-08-06T08:51:34;101565.59;;;14.09;100.00
29935;BME280;19905;53.370;-6.314;2023-08-06T08:54:04;101566.19;;;14.23;100.00
29935;BME280;19905;53.370;-6.314;2023-08-06T08:56:35;101573.97;;;14.49;100.00
29935;BME280;19905;53.370;-6.314;2023-08-06T08:59:03;101572.88;;;14.63;100.00
29935;BME280;19905;53.370;-6.314;2023-08-06T09:01:33;101569.94;;;14.88;100.00
29935;BME280;19905;53.370;-6.314;2023-08-06T09:04:03;101553.63;;;14.82;100.00
29935;BME280;19905;53.370;-6.314;2023-08-06T09:06:34;101555.19;;;14.84;100.00
29935;BME280;19905;53.370;-6.314;2023-08-06T09:09:08;101556.13;;;15.06;100.00
29935;BME280;19905;53.370;-6.314;2023-08-06T09:11:43;101538.69;;;15.02;100.00
29935;BME280;19905;53.370;-6.314;2023-08-06T09:14:12;101541.81;;;15.18;100.00
29935;BME280;19905;53.370;-6.314;2023-08-06T09:16:40;101532.28;;;15.57;100.00
29935;BME280;19905;53.370;-6.314;2023-08-06T09:19:10;101529.31;;;15.50;100.00
29935;BME280;19905;53.370;-6.314;2023-08-06T09:21:40;101543.91;;;15.35;100.00
29935;BME280;19905;53.370;-6.314;2023-08-06T09:24:09;101540.50;;;15.12;100.00
29935;BME280;19905;53.370;-6.314;2023-08-06T09:26:41;101556.03;;;14.96;100.00
29935;BME280;19905;53.370;-6.314;2023-08-06T09:29:11;101543.31;;;14.99;100.00
29935;BME280;19905;53.370;-6.314;2023-08-06T09:31:41;101539.38;;;15.47;100.00
29935;BME280;19905;53.370;-6.314;2023-08-06T09:34:11;101540.91;;;15.82;100.00
29935;BME280;19905;53.370;-6.314;2023-08-06T09:36:41;101525.25;;;15.88;100.00
29935;BME280;19905;53.370;-6.314;2023-08-06T09:39:13;101512.31;;;15.84;100.00
29935;BME280;19905;53.370;-6.314;2023-08-06T09:41:44;101524.16;;;15.91;100.00
29935;BME280;19905;53.370;-6.314;2023-08-06T09:44:19;101522.94;;;16.35;100.00
29935;BME280;19905;53.370;-6.314;2023-08-06T09:46:49;101525.81;;;16.63;100.00
29935;BME280;19905;53.370;-6.314;2023-08-06T09:49:19;101505.00;;;16.97;100.00
29935;BME280;19905;53.370;-6.314;2023-08-06T09:51:51;101512.47;;;16.63;100.00
29935;BME280;19905;53.370;-6.314;2023-08-06T09:54:23;101510.03;;;16.81;100.00
29935;BME280;19905;53.370;-6.314;2023-08-06T09:56:56;101511.72;;;16.82;100.00
29935;BME280;19905;53.370;-6.314;2023-08-06T09:59:25;101497.81;;;16.78;100.00
29935;BME280;19905;53.370;-6.314;2023-08-06T10:01:54;101498.25;;;17.02;100.00
29935;BME280;19905;53.370;-6.314;2023-08-06T10:04:24;101499.09;;;17.51;100.00
29935;BME280;19905;53.370;-6.314;2023-08-06T10:07:01;101494.72;;;17.41;100.00
29935;BME280;19905;53.370;-6.314;2023-08-06T10:09:30;101494.72;;;17.50;100.00
29935;BME280;19905;53.370;-6.314;2023-08-06T10:12:00;101505.06;;;17.92;100.00
29935;BME280;19905;53.370;-6.314;2023-08-06T10:14:33;101504.13;;;17.74;100.00
29935;BME280;19905;53.370;-6.314;2023-08-06T10:17:06;101514.41;;;17.30;100.00
29935;BME280;19905;53.370;-6.314;2023-08-06T10:19:41;101519.97;;;16.69;100.00
29935;BME280;19905;53.370;-6.314;2023-08-06T10:22:17;101523.09;;;16.43;100.00
29935;BME280;19905;53.370;-6.314;2023-08-06T10:24:53;101530.13;;;16.85;100.00
29935;BME280;19905;53.370;-6.314;2023-08-06T10:27:29;101520.03;;;17.56;100.00
29935;BME280;19905;53.370;-6.314;2023-08-06T10:30:29;101514.28;;;17.41;100.00
29935;BME280;19905;53.370;-6.314;2023-08-06T10:33:01;101516.09;;;17.02;100.00
29935;BME280;19905;53.370;-6.314;2023-08-06T10:35:31;101519.59;;;16.83;100.00
29935;BME280;19905;53.370;-6.314;2023-08-06T10:38:03;101514.31;;;16.62;100.00
29935;BME280;19905;53.370;-6.314;2023-08-06T10:40:33;101513.63;;;16.60;100.00
29935;BME280;19905;53.370;-6.314;2023-08-06T10:43:07;101508.09;;;17.21;100.00
29935;BME280;19905;53.370;-6.314;2023-08-06T10:45:51;101504.22;;;17.82;100.00
29935;BME280;19905;53.370;-6.314;2023-08-06T10:48:30;101489.06;;;18.75;100.00
29935;BME280;19905;53.370;-6.314;2023-08-06T10:51:00;101485.84;;;18.71;100.00
29935;BME280;19905;53.370;-6.314;2023-08-06T10:53:29;101492.25;;;17.86;100.00
29935;BME280;19905;53.370;-6.314;2023-08-06T10:56:00;101489.50;;;17.59;100.00
29935;BME280;19905;53.370;-6.314;2023-08-06T10:58:33;101493.06;;;17.20;100.00
29935;BME280;19905;53.370;-6.314;2023-08-06T11:01:01;101482.22;;;18.08;100.00
29935;BME280;19905;53.370;-6.314;2023-08-06T11:03:31;101480.81;;;18.59;100.00
29935;BME280;19905;53.370;-6.314;2023-08-06T11:06:01;101479.28;;;18.56;100.00
29935;BME280;19905;53.370;-6.314;2023-08-06T11:08:33;101512.16;;;17.25;100.00
29935;BME280;19905;53.370;-6.314;2023-08-06T11:11:09;101524.94;;;16.43;100.00
29935;BME280;19905;53.370;-6.314;2023-08-06T11:13:39;101569.50;;;15.47;100.00
29935;BME280;19905;53.370;-6.314;2023-08-06T11:16:09;101582.75;;;14.94;100.00
29935;BME280;19905;53.370;-6.314;2023-08-06T11:18:37;101603.09;;;14.73;100.00
29935;BME280;19905;53.370;-6.314;2023-08-06T11:21:06;101605.16;;;14.69;100.00
29935;BME280;19905;53.370;-6.314;2023-08-06T11:23:35;101609.28;;;14.62;100.00
29935;BME280;19905;53.370;-6.314;2023-08-06T11:26:04;101604.31;;;14.69;100.00
29935;BME280;19905;53.370;-6.314;2023-08-06T11:28:33;101608.03;;;14.78;100.00
29935;BME280;19905;53.370;-6.314;2023-08-06T11:31:03;101606.38;;;14.77;100.00
29935;BME280;19905;53.370;-6.314;2023-08-06T11:33:32;101600.00;;;15.55;100.00
29935;BME280;19905;53.370;-6.314;2023-08-06T11:36:01;101571.91;;;16.34;100.00
29935;BME280;19905;53.370;-6.314;2023-08-06T11:38:30;101561.47;;;17.02;100.00
29935;BME280;19905;53.370;-6.314;2023-08-06T11:40:59;101545.63;;;17.20;100.00
29935;BME280;19905;53.370;-6.314;2023-08-06T11:43:30;101538.56;;;17.77;100.00
29935;BME280;19905;53.370;-6.314;2023-08-06T11:46:04;101535.09;;;18.14;100.00
29935;BME280;19905;53.370;-6.314;2023-08-06T11:48:32;101539.47;;;18.05;100.00
29935;BME280;19905;53.370;-6.314;2023-08-06T11:51:18;101529.41;;;17.70;100.00
29935;BME280;19905;53.370;-6.314;2023-08-06T11:53:49;101535.91;;;17.58;100.00
29935;BME280;19905;53.370;-6.314;2023-08-06T11:56:18;101534.78;;;17.50;100.00
29935;BME280;19905;53.370;-6.314;2023-08-06T11:58:47;101515.53;;;18.13;100.00
29935;BME280;19905;53.370;-6.314;2023-08-06T12:01:18;101494.41;;;18.47;100.00
29935;BME280;19905;53.370;-6.314;2023-08-06T12:03:46;101499.91;;;19.09;100.00
29935;BME280;19905;53.370;-6.314;2023-08-06T12:06:15;101486.84;;;18.88;100.00
29935;BME280;19905;53.370;-6.314;2023-08-06T12:08:44;101472.13;;;19.28;100.00
29935;BME280;19905;53.370;-6.314;2023-08-06T12:11:13;101458.38;;;19.67;100.00
29935;BME280;19905;53.370;-6.314;2023-08-06T12:13:41;101464.63;;;19.75;100.00
29935;BME280;19905;53.370;-6.314;2023-08-06T12:16:10;101459.69;;;19.89;100.00
29935;BME280;19905;53.370;-6.314;2023-08-06T12:18:40;101468.47;;;19.29;100.00
29935;BME280;19905;53.370;-6.314;2023-08-06T12:21:08;101492.50;;;18.58;100.00
29935;BME280;19905;53.370;-6.314;2023-08-06T12:23:37;101526.34;;;17.65;100.00
29935;BME280;19905;53.370;-6.314;2023-08-06T12:26:05;101542.78;;;17.02;100.00
29935;BME280;19905;53.370;-6.314;2023-08-06T12:28:34;101560.81;;;16.69;100.00
29935;BME280;19905;53.370;-6.314;2023-08-06T12:31:02;101586.47;;;16.30;100.00
29935;BME280;19905;53.370;-6.314;2023-08-06T12:33:31;101581.13;;;15.79;100.00
29935;BME280;19905;53.370;-6.314;2023-08-06T12:36:01;101596.94;;;15.59;100.00
29935;BME280;19905;53.370;-6.314;2023-08-06T12:38:30;101596.03;;;15.81;100.00
29935;BME280;19905;53.370;-6.314;2023-08-06T12:41:00;101598.81;;;16.00;100.00
29935;BME280;19905;53.370;-6.314;2023-08-06T12:43:29;101596.41;;;15.97;100.00